createdAt,value
2022-10-11T11:40:46.226Z,99580.44
2022-10-11T11:43:18.276Z,99585.44
2022-10-11T11:45:51.235Z,99581.31
2022-10-11T11:48:25.573Z,99576.75
2022-10-11T11:51:07.846Z,99577.19
2022-10-11T11:53:49.318Z,99572.50
2022-10-11T11:56:33.124Z,99562.31
2022-10-11T11:59:25.794Z,99574.78
2022-10-11T12:01:55.050Z,99572.47
2022-10-11T12:04:42.376Z,99566.28
2022-10-11T12:07:17.952Z,99570.78
2022-10-11T12:09:47.521Z,99570.59
2022-10-11T12:12:29.659Z,99573.75
2022-10-11T12:15:09.194Z,99571.94
2022-10-11T12:17:57.643Z,99567.22
2022-10-11T12:20:33.655Z,99563.53
2022-10-11T12:23:29.486Z,99558.44
2022-10-11T12:26:24.242Z,99557.56
2022-10-11T12:29:05.857Z,99556.38
2022-10-11T12:31:36.677Z,99562.13
2022-10-11T12:34:09.951Z,99549.66
2022-10-11T12:36:43.173Z,99550.38
2022-10-11T12:39:18.637Z,99556.13
2022-10-11T12:41:48.085Z,99548.91
2022-10-11T12:44:20.660Z,99549.53
2022-10-11T12:46:53.075Z,99554.63
2022-10-11T12:49:22.429Z,99547.75
2022-10-11T12:52:05.634Z,99546.16
2022-10-11T12:55:03.171Z,99538.28
2022-10-11T12:57:32.571Z,99542.97
2022-10-11T13:00:30.456Z,99546.63
2022-10-11T13:02:59.555Z,99540.38
2022-10-11T13:05:30.630Z,99553.56
2022-10-11T13:08:03.103Z,99547.47
2022-10-11T13:10:35.929Z,99542.63
2022-10-11T13:13:06.384Z,99549.31
2022-10-11T13:15:34.283Z,99543.81
2022-10-11T13:18:01.339Z,99545.09
2022-10-11T13:20:37.439Z,99539.44
2022-10-11T13:23:39.004Z,99553.22
2022-10-11T13:26:05.879Z,99547.75
2022-10-11T13:28:36.251Z,99547.97
2022-10-11T13:31:04.094Z,99547.56
2022-10-11T13:33:33.765Z,99546.38
2022-10-11T13:36:03.253Z,99551.84
2022-10-11T13:38:33.606Z,99552.47
2022-10-11T13:41:04.475Z,99557.53
2022-10-11T13:43:32.136Z,99551.25
2022-10-11T13:46:00.353Z,99552.44
2022-10-11T13:48:31.594Z,99549.78
2022-10-11T13:51:10.979Z,99551.63
2022-10-11T13:53:37.644Z,99552.66
2022-10-11T13:56:07.938Z,99556.13
2022-10-11T13:58:38.955Z,99556.16
2022-10-11T14:01:27.477Z,99562.88
2022-10-11T14:04:01.999Z,99556.59
2022-10-11T14:07:05.466Z,99555.00
2022-10-11T14:09:36.820Z,99563.88
2022-10-11T14:12:38.208Z,99565.91
2022-10-11T14:15:23.704Z,99570.56
2022-10-11T14:17:50.291Z,99565.69
2022-10-11T14:20:19.652Z,99563.81
2022-10-11T14:22:46.434Z,99571.88
2022-10-11T14:25:13.337Z,99574.69
2022-10-11T14:27:39.840Z,99572.19
2022-10-11T14:30:27.304Z,99579.88
2022-10-11T14:32:57.576Z,99574.59
2022-10-11T14:35:26.427Z,99574.78
2022-10-11T14:37:53.160Z,99569.69
2022-10-11T14:40:23.727Z,99576.28
2022-10-11T14:42:51.022Z,99580.50
2022-10-11T14:45:18.796Z,99584.28
2022-10-11T14:47:45.315Z,99581.22
2022-10-11T14:50:39.569Z,99583.38
2022-10-11T14:53:07.778Z,99591.56
2022-10-11T14:55:39.022Z,99585.03
2022-10-11T14:58:06.799Z,99588.78
2022-10-11T15:00:34.945Z,99589.53
2022-10-11T15:03:01.637Z,99593.53
2022-10-11T15:05:33.665Z,99595.94
2022-10-11T15:08:01.883Z,99598.69
2022-10-11T15:10:40.625Z,99596.44
2022-10-11T15:13:08.464Z,99597.63
2022-10-11T15:15:36.897Z,99594.00
2022-10-11T15:18:06.374Z,99591.59
2022-10-11T15:20:39.770Z,99591.78
2022-10-11T15:23:08.229Z,99600.44
2022-10-11T15:25:35.082Z,99601.63
2022-10-11T15:28:01.990Z,99604.56
2022-10-11T15:30:40.953Z,99600.03
2022-10-11T15:33:08.846Z,99603.84
2022-10-11T15:35:35.586Z,99598.69
2022-10-11T15:38:02.621Z,99610.38
2022-10-11T15:40:35.177Z,99610.91
2022-10-11T15:43:02.972Z,99606.81
2022-10-11T15:45:30.576Z,99605.91
2022-10-11T15:47:57.755Z,99610.72
2022-10-11T15:50:30.748Z,99605.84
2022-10-11T15:52:57.677Z,99613.69
2022-10-11T15:55:24.396Z,99611.44
2022-10-11T15:57:51.089Z,99613.81
2022-10-11T16:00:22.110Z,99615.16
2022-10-11T16:02:51.800Z,99619.13
2022-10-11T16:05:23.187Z,99616.50
2022-10-11T16:07:49.924Z,99617.41
2022-10-11T16:10:16.819Z,99615.44
2022-10-11T16:12:43.627Z,99619.69
2022-10-11T16:15:10.937Z,99618.25
2022-10-11T16:17:38.125Z,99615.38
2022-10-11T16:20:06.451Z,99624.09
2022-10-11T16:22:34.519Z,99623.00
2022-10-11T16:25:02.172Z,99623.72
2022-10-11T16:27:29.477Z,99619.66
2022-10-11T16:29:56.237Z,99622.47
2022-10-11T16:32:23.196Z,99626.88
2022-10-11T16:34:50.202Z,99627.34
2022-10-11T16:37:17.011Z,99627.94
2022-10-11T16:39:43.859Z,99621.00
2022-10-11T16:42:10.681Z,99627.28
2022-10-11T16:44:37.859Z,99628.34
2022-10-11T16:47:05.303Z,99626.72
2022-10-11T16:49:32.066Z,99627.88
2022-10-11T16:51:59.970Z,99629.38
2022-10-11T16:54:27.318Z,99625.16
2022-10-11T16:56:54.635Z,99627.66
2022-10-11T16:59:21.402Z,99616.56
2022-10-11T17:01:48.456Z,99619.81
2022-10-11T17:04:15.621Z,99617.59
2022-10-11T17:06:42.322Z,99606.56
2022-10-11T17:09:09.077Z,99609.22
2022-10-11T17:11:35.956Z,99610.56
2022-10-11T17:14:03.253Z,99615.22
2022-10-11T17:16:29.988Z,99617.91
2022-10-11T17:18:56.824Z,99614.34
2022-10-11T17:21:24.141Z,99608.34
2022-10-11T17:23:51.233Z,99609.03
2022-10-11T17:26:25.309Z,99617.38
2022-10-11T17:28:54.517Z,99625.91
2022-10-11T17:31:21.889Z,99627.94
2022-10-11T17:33:48.926Z,99625.81
2022-10-11T17:36:25.634Z,99621.13
2022-10-11T17:38:52.771Z,99618.88
2022-10-11T17:41:20.338Z,99619.53
2022-10-11T17:43:47.720Z,99620.50
2022-10-11T17:46:16.334Z,99613.00
2022-10-11T17:48:43.521Z,99621.81
2022-10-11T17:51:16.049Z,99615.16
2022-10-11T17:53:43.543Z,99612.72
2022-10-11T17:56:12.822Z,99608.69
2022-10-11T17:58:40.040Z,99618.34
2022-10-11T18:01:13.581Z,99621.09
2022-10-11T18:03:40.663Z,99621.59
2022-10-11T18:06:09.896Z,99614.78
2022-10-11T18:08:40.779Z,99611.34
2022-10-11T18:11:13.379Z,99615.59
2022-10-11T18:13:40.898Z,99611.84
2022-10-11T18:16:08.113Z,99613.81
2022-10-11T18:18:35.980Z,99613.81
2022-10-11T18:21:02.739Z,99602.25
2022-10-11T18:23:29.539Z,99607.13
2022-10-11T18:25:56.244Z,99605.84
2022-10-11T18:28:23.165Z,99599.66
2022-10-11T18:30:51.083Z,99599.47
2022-10-11T18:33:17.775Z,99603.38
2022-10-11T18:35:44.559Z,99601.09
2022-10-11T18:38:11.278Z,99599.78
2022-10-11T18:40:43.451Z,99590.34
2022-10-11T18:43:13.023Z,99591.34
2022-10-11T18:45:39.701Z,99595.88
2022-10-11T18:48:06.431Z,99591.31
2022-10-11T18:50:33.213Z,99589.03
2022-10-11T18:52:59.939Z,99598.78
2022-10-11T18:55:26.698Z,99589.34
2022-10-11T18:57:53.598Z,99594.72
2022-10-11T19:00:39.603Z,99599.28
2022-10-11T19:03:07.083Z,99593.56
2022-10-11T19:05:33.802Z,99587.72
2022-10-11T19:08:00.525Z,99589.34
2022-10-11T19:10:27.317Z,99590.31
2022-10-11T19:12:54.038Z,99588.69
2022-10-11T19:15:23.185Z,99586.41
2022-10-11T19:17:52.058Z,99581.53
2022-10-11T19:20:18.747Z,99582.50
2022-10-11T19:22:45.433Z,99585.13
2022-10-11T19:25:12.199Z,99576.66
2022-10-11T19:27:38.905Z,99576.97
2022-10-11T19:30:06.409Z,99579.22
2022-10-11T19:32:33.147Z,99573.38
2022-10-11T19:34:59.835Z,99575.31
2022-10-11T19:37:26.550Z,99565.88
2022-10-11T19:39:53.367Z,99567.16
2022-10-11T19:42:20.081Z,99560.81
2022-10-11T19:44:46.780Z,99560.63
2022-10-11T19:47:13.574Z,99560.94
2022-10-11T19:49:40.257Z,99555.09
2022-10-11T19:52:07.045Z,99559.00
2022-10-11T19:54:33.814Z,99562.88
2022-10-11T19:57:00.568Z,99562.06
2022-10-11T19:59:27.262Z,99563.19
2022-10-11T20:01:54.146Z,99554.75
2022-10-11T20:07:08.608Z,99551.59
2022-10-11T20:09:35.356Z,99561.53
2022-10-11T20:12:02.061Z,99558.59
2022-10-11T20:14:29.773Z,99555.31
2022-10-11T20:16:56.495Z,99557.25
2022-10-11T20:19:29.350Z,99551.56
2022-10-11T20:21:57.627Z,99552.53
2022-10-11T20:24:24.363Z,99551.06
2022-10-11T20:26:51.058Z,99550.03
2022-10-11T20:29:18.541Z,99547.09
2022-10-11T20:31:47.172Z,99549.84
2022-10-11T20:34:14.104Z,99547.72
2022-10-11T20:36:42.198Z,99552.56
2022-10-11T20:39:10.618Z,99558.72
2022-10-11T20:41:38.349Z,99548.47
2022-10-11T20:44:06.078Z,99546.19
2022-10-11T20:46:35.104Z,99555.47
2022-10-11T20:49:05.381Z,99554.66
2022-10-11T20:51:34.273Z,99553.47
2022-10-11T20:54:01.172Z,99552.00
2022-10-11T20:56:28.091Z,99546.63
2022-10-11T20:58:56.507Z,99549.69
2022-10-11T21:01:26.303Z,99558.75
2022-10-11T21:03:53.618Z,99553.03
2022-10-11T21:06:20.452Z,99552.97
2022-10-11T21:08:47.232Z,99554.53
2022-10-11T21:11:13.967Z,99552.19
2022-10-11T21:13:41.181Z,99550.50
2022-10-11T21:16:13.295Z,99548.81
2022-10-11T21:18:40.619Z,99556.53
2022-10-11T21:21:10.192Z,99553.34
2022-10-11T21:23:37.001Z,99546.28
2022-10-11T21:26:08.163Z,99546.06
2022-10-11T21:28:35.313Z,99543.91
2022-10-11T21:31:05.407Z,99543.53
2022-10-11T21:33:33.271Z,99543.16
2022-10-11T21:36:04.768Z,99543.72
2022-10-11T21:38:31.740Z,99544.34
2022-10-11T21:40:58.453Z,99550.09
2022-10-11T21:43:25.273Z,99544.84
2022-10-11T21:45:51.971Z,99546.91
2022-10-11T21:48:18.669Z,99552.09
2022-10-11T21:50:52.961Z,99543.09
2022-10-11T21:53:19.663Z,99545.84
2022-10-11T21:55:46.449Z,99542.72
2022-10-11T21:58:13.924Z,99560.19
2022-10-11T22:00:40.612Z,99553.13
2022-10-11T22:03:07.552Z,99548.91
2022-10-11T22:05:34.319Z,99547.97
2022-10-11T22:08:01.032Z,99546.78
2022-10-11T22:10:27.725Z,99546.56
2022-10-11T22:12:55.005Z,99549.03
2022-10-11T22:15:21.690Z,99547.13
2022-10-11T22:17:48.375Z,99550.97
2022-10-11T22:20:15.934Z,99547.56
2022-10-11T22:22:42.621Z,99555.59
2022-10-11T22:25:09.404Z,99553.72
2022-10-11T22:27:37.082Z,99550.88
2022-10-11T22:30:04.011Z,99559.19
2022-10-11T22:32:30.938Z,99552.94
2022-10-11T22:34:58.034Z,99551.59
2022-10-11T22:37:24.697Z,99551.88
2022-10-11T22:39:51.421Z,99555.41
2022-10-11T22:42:18.305Z,99555.41
2022-10-11T22:44:44.861Z,99551.59
2022-10-11T22:47:11.352Z,99556.78
2022-10-11T22:49:37.874Z,99553.09
2022-10-11T22:52:04.471Z,99555.69
2022-10-11T22:54:30.936Z,99560.59
2022-10-11T22:56:57.531Z,99563.03
2022-10-11T22:59:24.041Z,99559.78
2022-10-11T23:01:50.508Z,99550.78
2022-10-11T23:04:17.990Z,99561.56
2022-10-11T23:06:44.453Z,99562.78
2022-10-11T23:09:10.927Z,99556.78
2022-10-11T23:11:55.846Z,99549.97
2022-10-11T23:14:23.885Z,99545.34
2022-10-11T23:16:51.319Z,99554.34
2022-10-11T23:19:18.017Z,99555.16
2022-10-11T23:21:44.491Z,99548.88
2022-10-11T23:24:11.102Z,99546.69
2022-10-11T23:26:37.660Z,99542.63
2022-10-11T23:29:04.139Z,99543.72
2022-10-11T23:31:30.806Z,99538.69
2022-10-11T23:33:57.727Z,99545.50
2022-10-11T23:36:26.406Z,99545.78
2022-10-11T23:38:54.536Z,99546.03
2022-10-11T23:41:22.218Z,99547.25
2022-10-11T23:43:48.823Z,99542.47
2022-10-11T23:46:15.480Z,99548.88
2022-10-11T23:48:42.249Z,99535.00
2022-10-11T23:51:09.735Z,99543.03
2022-10-11T23:53:36.484Z,99545.06
2022-10-11T23:56:04.000Z,99545.31
2022-10-11T23:58:30.499Z,99539.59
